• Join FlightAware (Why Join?)
  • Login
  • US Flag 
02:38PM EDT


 

Airport Tracker/Info


-or-


 

Live Flight TrackerFlight Track Log ✈ SWA2353 ✈ 31-Aug-2013 ✈ KSLC - KPHX

Flight Track Log - Related Links

Times and Time Zones

All times are in EDT time to prevent confusion due to time zone crossing. See the SWA2353 flight status page for this flight to view local times or setup timezone preferences in your user account.

Time Position Orientation Groundspeed Altitude Reporting Facility
EDT Latitude Longitude Course Direction KTS MPH feet Rate Location/Type
10:06AM 40.7758 -111.9756 177° South 159 183 5,100  Level Salt Lake Center
10:06AM 40.7408 -111.9733 177° South 168 193 6,200 1,860 Climbing Salt Lake Center
10:07AM 40.6731 -111.9681 177° South 227 261 8,500 2,100 Climbing Salt Lake Center
10:08AM 40.6058 -111.9656 178° South 279 321 10,300 1,740 Climbing Salt Lake Center
10:09AM 40.5739 -111.9597 172° South 294 338 11,000 2,280 Climbing Salt Lake Center
10:10AM 40.4756 -111.9525 177° South 354 407 13,800 3,000 Climbing Salt Lake Center
10:11AM 40.3722 -111.9464 177° South 371 427 17,200 3,300 Climbing Salt Lake Center
10:12AM 40.2442 -111.9428 179° South 387 445 20,600 2,880 Climbing Salt Lake Center
10:13AM 40.1336 -111.9611 187° South 402 463 23,200 2,400 Climbing Salt Lake Center
10:14AM 40.0200 -111.9778 186° South 414 476 25,500 2,100 Climbing Salt Lake Center
10:15AM 39.9047 -111.9953 187° South 422 486 27,500 1,860 Climbing Salt Lake Center
10:16AM 39.7847 -112.0133 187° South 433 498 29,300 1,680 Climbing Salt Lake Center
10:17AM 39.6614 -112.0297 186° South 442 509 31,000 780 Climbing Salt Lake Center
10:18AM 39.5436 -112.0481 187° South 427 491 31,000 480 Level Salt Lake Center
10:19AM 39.4261 -112.0647 186° South 426 490 32,100 1,440 Climbing Salt Lake Center
10:20AM 39.3108 -112.0797 186° South 416 479 34,000 900 Climbing Salt Lake Center
10:21AM 39.1911 -112.0969 186° South 406 467 34,000  Level Salt Lake Center
10:22AM 39.0756 -112.1150 187° South 416 479 34,000  Level Salt Lake Center
10:23AM 38.9719 -112.1597 199° South 414 476 34,000  Level Salt Lake Center
10:24AM 38.9025 -112.2708 231° Southwest 402 463 34,000  Level Salt Lake Center
10:25AM 38.8183 -112.4025 231° Southwest 400 460 34,000  Level Salt Lake Center
10:26AM 38.7494 -112.5147 232° Southwest 402 463 34,000  Level Salt Lake Center
10:27AM 38.6422 -112.5478 194° South 420 483 34,000 540 Level Salt Lake Center
10:28AM 38.5247 -112.5411 177° South 425 489 35,200 1,320 Climbing Salt Lake Center
10:29AM 38.4083 -112.5344 177° South 419 482 36,800 840 Climbing Salt Lake Center
10:30AM 38.2903 -112.5286 178° South 422 486 37,000 60 Climbing Salt Lake Center
10:31AM 38.1686 -112.5214 177° South 433 498 37,000  Level Salt Lake Center
10:32AM 38.0514 -112.5492 191° South 428 493 37,000  Level Salt Lake Center
10:33AM 37.9344 -112.5831 193° South 430 495 37,000  Level Salt Lake Center
10:34AM 37.7939 -112.6236 193° South 430 495 37,000  Level Salt Lake Center
10:35AM 37.6756 -112.6583 193° South 431 496 37,000  Level Salt Lake Center
10:36AM 37.5542 -112.6919 192° South 435 501 37,000  Level Salt Lake Center
10:37AM 37.4322 -112.7283 193° South 440 506 37,000  Level Salt Lake Center
10:38AM 37.3125 -112.7656 194° South 439 505 37,000  Level Salt Lake Center
10:39AM 37.1958 -112.8025 194° South 433 498 37,000  Level Los Angeles Center
10:39AM 37.1958 -112.8025 194° South 434 499 37,000  Level Salt Lake Center
10:40AM 37.0775 -112.8389 194° South 436 502 37,000  Level Los Angeles Center
10:41AM 36.9611 -112.8778 195° South 434 499 37,000  Level Los Angeles Center
10:42AM 36.8433 -112.9167 195° South 436 502 37,000 -360 Level Los Angeles Center
10:44AM 36.7272 -112.9561 195° South 435 501 36,200 -960 Descending Los Angeles Center
10:45AM 36.5864 -113.0042 195° South 436 502 34,900 -1,260 Descending Los Angeles Center
10:46AM 36.4656 -113.0450 195° South 446 513 33,700 -960 Descending Los Angeles Center
10:47AM 36.3236 -113.0081 168° South 448 516 33,000 -360 Descending Los Angeles Center
10:48AM 36.2086 -112.9464 157° South 450 518 33,000 -540 Level Los Angeles Center
10:49AM 36.0956 -112.8842 156° South 447 514 32,000 -900 Descending Los Angeles Center
10:50AM 35.9836 -112.8086 151° Southeast 457 526 31,000 -900 Descending Los Angeles Center
10:51AM 35.8608 -112.7300 153° Southeast 459 528 30,000 -1,020 Descending Los Angeles Center
10:52AM 35.7236 -112.6422 153° Southeast 462 532 29,000 -540 Descending Los Angeles Center
10:53AM 35.6097 -112.5689 152° Southeast 459 528 29,000  Level Los Angeles Center
10:54AM 35.4944 -112.4958 153° Southeast 462 532 29,000  Level Los Angeles Center
10:55AM 35.3761 -112.4339 157° South 465 535 29,000  Level Los Angeles Center
10:56AM 35.2989 -112.4172 170° South 469 540 29,000  Level Albuquerque Center
10:57AM 35.1486 -112.3836 170° South 461 531 29,000  Level Albuquerque Center
10:58AM 35.0275 -112.3575 170° South 452 520 29,000 -1,020 Level Albuquerque Center
10:59AM 34.9081 -112.3328 170° South 444 511 26,900 -1,500 Descending Albuquerque Center
11:00AM 34.7917 -112.3081 170° South 435 501 26,000 -1,200 Descending Albuquerque Center
11:01AM 34.6797 -112.2828 169° South 423 487 24,500 -1,860 Descending Albuquerque Center
11:02AM 34.5694 -112.2583 170° South 412 474 22,200 -2,220 Descending Albuquerque Center
11:03AM 34.4419 -112.2303 170° South 396 456 20,000 -1,800 Descending Albuquerque Center
11:04AM 34.3408 -112.2031 167° South 384 442 18,600 -1,680 Descending Albuquerque Center
11:05AM 34.2442 -112.1769 167° South 366 421 16,600 -1,980 Descending Albuquerque Center
11:06AM 34.1481 -112.1522 168° South 358 412 14,600 -1,620 Descending Albuquerque Center
11:07AM 34.0561 -112.1381 173° South 337 388 13,300 -1,140 Descending Albuquerque Center
11:08AM 33.9619 -112.1497 186° South 286 329 12,300 -1,260 Descending Albuquerque Center
11:09AM 33.8925 -112.1583 186° South 256 295 10,700 -1,500 Descending Albuquerque Center
11:10AM 33.8239 -112.1736 190° South 253 291 9,200 -1,320 Descending Albuquerque Center
11:11AM 33.7544 -112.1878 190° South 253 291 8,000 -840 Descending Albuquerque Center
11:12AM 33.6872 -112.2019 190° South 248 285 7,500 -840 Descending Albuquerque Center
11:13AM 33.6061 -112.2194 190° South 246 283 6,300 -840 Descending Albuquerque Center
11:14AM 33.5444 -112.2211 181° South 223 257 5,800 -780 Descending Albuquerque Center
11:16AM 33.4900 -112.2219 181° South 201 231 4,700 -1,140 Descending Albuquerque Center
11:17AM 33.4578 -112.1725 128° Southeast 191 220 3,500 -1,140 Descending Albuquerque Center
11:17AM 33.4333 -112.1167 118° Southeast 154 177 2,500 -900 Descending Phoenix TRACON
11:18AM 33.4333 -112.0833 90° East 138 159 1,800 -720 Descending Phoenix TRACON